• Join FlightAware (Why Join?)
  • Login
  • US Flag 
11:47AM EDT


 

Airport Tracker/Info


-or-


 

Live Flight TrackerFlight Track Log ✈ N249PL ✈ 03-Sep-2013 ✈ T94 - KCRP

Flight Track Log - Related Links

Times and Time Zones

All times are in EDT time to prevent confusion due to time zone crossing. See the N249PL flight status page for this flight to view local times or setup timezone preferences in your user account.

Time Position Orientation Groundspeed Altitude Reporting Facility
EDT Latitude Longitude Course Direction KTS MPH feet Rate Location/Type
02:52PM 29.3847 -98.4036 150° Southeast 173 199 7,500  Level Houston Center
02:53PM 29.3367 -98.3719 150° Southeast 177 204 10,000 2,040 Climbing Houston Center
02:54PM 29.2892 -98.3458 154° Southeast 186 214 11,900 1,200 Climbing Houston Center
02:55PM 29.2358 -98.3139 152° Southeast 226 260 12,500 540 Climbing Houston Center
02:56PM 29.1681 -98.2731 152° Southeast 261 300 13,100 1,080 Climbing Houston Center
02:57PM 29.1069 -98.2322 150° Southeast 235 270 14,900 1,500 Climbing Houston Center
02:58PM 29.0528 -98.2006 153° Southeast 221 254 16,300 1,200 Climbing Houston Center
02:59PM 28.9925 -98.1683 155° Southeast 223 257 17,500 540 Climbing Houston Center
03:00PM 28.9283 -98.1328 154° Southeast 255 293 17,500  Level Houston Center
03:01PM 28.8558 -98.0944 155° Southeast 275 316 17,500  Level Houston Center
03:02PM 28.7939 -98.0564 152° Southeast 290 334 17,500 -60 Level Houston Center
03:03PM 28.7081 -98.0114 155° Southeast 286 329 17,400 -60 Descending Houston Center
03:04PM 28.6375 -97.9731 155° Southeast 283 326 17,400  Level Houston Center
03:05PM 28.5675 -97.9342 154° Southeast 281 323 17,400 -60 Level Houston Center
03:06PM 28.4953 -97.8944 154° Southeast 286 329 17,300 -840 Descending Houston Center
03:08PM 28.3914 -97.8481 159° South 315 362 15,500 -1,500 Descending Houston Center
03:09PM 28.3208 -97.8175 159° South 307 353 14,300 -1,920 Descending Houston Center
03:10PM 28.2422 -97.7850 160° South 305 351 12,000 -2,100 Descending Houston Center
03:11PM 28.1639 -97.7556 162° South 304 350 10,000 -1,800 Descending Houston Center
03:12PM 28.0894 -97.7269 161° South 291 335 8,400 -1,860 Descending Houston Center
03:13PM 28.0139 -97.7078 167° South 283 326 6,200 -2,100 Descending Houston Center
03:14PM 27.9375 -97.6789 162° South 256 295 4,100 -1,620 Descending Houston Center
03:15PM 27.8867 -97.6325 141° Southeast 259 298 2,900 -1,140 Descending Houston Center
03:16PM 27.8297 -97.5731 137° Southeast 184 212 1,600 -1,020 Descending Houston Center
03:17PM 27.8011 -97.5414 136° Southeast 126 145 800 -840 Descending Houston Center
03:19PM 27.7667 -97.5000 156° South  Level FlightAware Approximate
03:26PM 27.7704 -97.5012 156° South  Level Estimated